sensor_id;sensor_type;location;lat;lon;timestamp;temperature;humidity
17891;DHT22;9071;48.220;14.480;2023-05-07T00:01:13;12.20;99.90
17891;DHT22;9071;48.220;14.480;2023-05-07T00:06:15;12.10;99.90
17891;DHT22;9071;48.220;14.480;2023-05-07T00:11:19;12.10;99.90
17891;DHT22;9071;48.220;14.480;2023-05-07T00:16:21;12.00;99.90
17891;DHT22;9071;48.220;14.480;2023-05-07T00:21:23;11.90;99.90
17891;DHT22;9071;48.220;14.480;2023-05-07T00:26:28;11.80;99.90
17891;DHT22;9071;48.220;14.480;2023-05-07T00:31:30;11.80;99.90
17891;DHT22;9071;48.220;14.480;2023-05-07T00:36:32;11.70;99.90
17891;DHT22;9071;48.220;14.480;2023-05-07T00:41:36;11.70;99.90
17891;DHT22;9071;48.220;14.480;2023-05-07T00:46:38;11.60;99.90
17891;DHT22;9071;48.220;14.480;2023-05-07T00:51:40;11.40;99.90
17891;DHT22;9071;48.220;14.480;2023-05-07T00:56:44;11.30;99.90
17891;DHT22;9071;48.220;14.480;2023-05-07T01:01:46;11.30;99.90
17891;DHT22;9071;48.220;14.480;2023-05-07T01:06:49;11.20;99.90
17891;DHT22;9071;48.220;14.480;2023-05-07T01:11:53;11.20;99.90
17891;DHT22;9071;48.220;14.480;2023-05-07T01:16:58;11.20;99.90
17891;DHT22;9071;48.220;14.480;2023-05-07T01:22:02;11.10;99.90
17891;DHT22;9071;48.220;14.480;2023-05-07T01:27:07;11.20;99.90
17891;DHT22;9071;48.220;14.480;2023-05-07T01:32:09;11.10;99.90
17891;DHT22;9071;48.220;14.480;2023-05-07T01:37:12;11.00;99.90
17891;DHT22;9071;48.220;14.480;2023-05-07T01:42:16;10.90;99.90
17891;DHT22;9071;48.220;14.480;2023-05-07T01:47:18;10.90;99.90
17891;DHT22;9071;48.220;14.480;2023-05-07T01:52:20;10.90;99.90
17891;DHT22;9071;48.220;14.480;2023-05-07T01:57:24;11.00;99.90
17891;DHT22;9071;48.220;14.480;2023-05-07T02:02:26;11.00;99.90
17891;DHT22;9071;48.220;14.480;2023-05-07T02:07:28;11.00;99.90
17891;DHT22;9071;48.220;14.480;2023-05-07T02:12:32;11.10;99.90
17891;DHT22;9071;48.220;14.480;2023-05-07T02:17:34;11.10;99.90
17891;DHT22;9071;48.220;14.480;2023-05-07T02:22:38;11.10;99.90
17891;DHT22;9071;48.220;14.480;2023-05-07T02:27:41;11.00;99.90
17891;DHT22;9071;48.220;14.480;2023-05-07T02:32:43;11.00;99.90
17891;DHT22;9071;48.220;14.480;2023-05-07T02:37:45;11.00;99.90
17891;DHT22;9071;48.220;14.480;2023-05-07T02:42:49;10.90;99.90
17891;DHT22;9071;48.220;14.480;2023-05-07T02:47:51;10.90;99.90
17891;DHT22;9071;48.220;14.480;2023-05-07T02:52:53;10.90;99.90
17891;DHT22;9071;48.220;14.480;2023-05-07T02:57:56;10.80;99.90
17891;DHT22;9071;48.220;14.480;2023-05-07T03:02:58;10.80;99.90
17891;DHT22;9071;48.220;14.480;2023-05-07T03:08:01;10.80;99.90
17891;DHT22;9071;48.220;14.480;2023-05-07T03:13:04;11.00;99.90
17891;DHT22;9071;48.220;14.480;2023-05-07T03:18:07;11.30;99.90
17891;DHT22;9071;48.220;14.480;2023-05-07T03:23:09;11.50;99.90
17891;DHT22;9071;48.220;14.480;2023-05-07T03:28:12;11.70;99.90
17891;DHT22;9071;48.220;14.480;2023-05-07T03:33:14;11.80;99.90
17891;DHT22;9071;48.220;14.480;2023-05-07T03:38:16;11.90;99.90
17891;DHT22;9071;48.220;14.480;2023-05-07T03:43:20;11.80;99.90
17891;DHT22;9071;48.220;14.480;2023-05-07T03:48:22;11.80;99.90
17891;DHT22;9071;48.220;14.480;2023-05-07T03:53:24;11.90;99.90
17891;DHT22;9071;48.220;14.480;2023-05-07T03:58:27;11.90;99.90
17891;DHT22;9071;48.220;14.480;2023-05-07T04:03:29;12.00;99.90
17891;DHT22;9071;48.220;14.480;2023-05-07T04:08:31;12.00;99.90
17891;DHT22;9071;48.220;14.480;2023-05-07T04:13:35;12.00;99.90
17891;DHT22;9071;48.220;14.480;2023-05-07T04:18:37;12.20;99.90
17891;DHT22;9071;48.220;14.480;2023-05-07T04:23:39;12.20;99.90
17891;DHT22;9071;48.220;14.480;2023-05-07T04:28:43;12.20;99.90
17891;DHT22;9071;48.220;14.480;2023-05-07T04:33:45;12.30;99.90
17891;DHT22;9071;48.220;14.480;2023-05-07T04:38:47;12.50;99.90
17891;DHT22;9071;48.220;14.480;2023-05-07T04:43:50;12.60;99.90
17891;DHT22;9071;48.220;14.480;2023-05-07T04:48:53;12.70;99.90
17891;DHT22;9071;48.220;14.480;2023-05-07T04:53:55;12.80;99.90
17891;DHT22;9071;48.220;14.480;2023-05-07T04:58:58;12.90;99.90
17891;DHT22;9071;48.220;14.480;2023-05-07T05:04:00;13.00;99.90
17891;DHT22;9071;48.220;14.480;2023-05-07T05:09:03;13.20;99.90
17891;DHT22;9071;48.220;14.480;2023-05-07T05:14:07;13.40;99.90
17891;DHT22;9071;48.220;14.480;2023-05-07T05:19:09;13.80;99.90
17891;DHT22;9071;48.220;14.480;2023-05-07T05:24:11;14.10;99.90
17891;DHT22;9071;48.220;14.480;2023-05-07T05:29:14;14.80;99.90
17891;DHT22;9071;48.220;14.480;2023-05-07T05:34:16;15.80;99.90
17891;DHT22;9071;48.220;14.480;2023-05-07T05:39:20;17.10;99.90
17891;DHT22;9071;48.220;14.480;2023-05-07T05:44:25;18.50;99.90
17891;DHT22;9071;48.220;14.480;2023-05-07T05:49:27;18.70;99.90
17891;DHT22;9071;48.220;14.480;2023-05-07T05:54:29;19.00;99.90
17891;DHT22;9071;48.220;14.480;2023-05-07T05:59:32;19.00;99.90
17891;DHT22;9071;48.220;14.480;2023-05-07T06:04:34;19.20;99.90
17891;DHT22;9071;48.220;14.480;2023-05-07T06:09:36;20.30;99.90
17891;DHT22;9071;48.220;14.480;2023-05-07T06:14:40;21.30;99.90
17891;DHT22;9071;48.220;14.480;2023-05-07T06:19:44;23.10;99.90
17891;DHT22;9071;48.220;14.480;2023-05-07T06:24:46;23.20;99.90
17891;DHT22;9071;48.220;14.480;2023-05-07T06:29:50;24.90;99.90
17891;DHT22;9071;48.220;14.480;2023-05-07T06:34:52;24.20;99.90
17891;DHT22;9071;48.220;14.480;2023-05-07T06:39:54;23.90;99.90
17891;DHT22;9071;48.220;14.480;2023-05-07T06:44:57;24.70;99.90
17891;DHT22;9071;48.220;14.480;2023-05-07T06:49:59;24.40;99.90
17891;DHT22;9071;48.220;14.480;2023-05-07T06:55:02;24.70;99.90
17891;DHT22;9071;48.220;14.480;2023-05-07T07:00:06;24.50;99.90
17891;DHT22;9071;48.220;14.480;2023-05-07T07:05:09;26.20;99.90
17891;DHT22;9071;48.220;14.480;2023-05-07T07:10:11;27.60;99.90
17891;DHT22;9071;48.220;14.480;2023-05-07T07:15:15;27.50;99.90
17891;DHT22;9071;48.220;14.480;2023-05-07T07:20:17;27.00;99.90
17891;DHT22;9071;48.220;14.480;2023-05-07T07:25:20;26.70;99.90
17891;DHT22;9071;48.220;14.480;2023-05-07T07:30:23;25.90;99.90
17891;DHT22;9071;48.220;14.480;2023-05-07T07:35:26;25.50;99.90
17891;DHT22;9071;48.220;14.480;2023-05-07T07:40:28;26.50;99.90
17891;DHT22;9071;48.220;14.480;2023-05-07T07:45:32;26.90;99.90
17891;DHT22;9071;48.220;14.480;2023-05-07T07:50:34;27.00;99.90
17891;DHT22;9071;48.220;14.480;2023-05-07T07:55:38;27.20;99.90
17891;DHT22;9071;48.220;14.480;2023-05-07T08:00:42;26.60;99.90
17891;DHT22;9071;48.220;14.480;2023-05-07T08:05:44;25.70;99.90
17891;DHT22;9071;48.220;14.480;2023-05-07T08:10:46;25.70;99.90
17891;DHT22;9071;48.220;14.480;2023-05-07T08:15:52;23.00;99.90
17891;DHT22;9071;48.220;14.480;2023-05-07T08:20:54;21.90;99.90
17891;DHT22;9071;48.220;14.480;2023-05-07T08:25:56;21.20;99.90
17891;DHT22;9071;48.220;14.480;2023-05-07T08:30:59;21.10;99.90
17891;DHT22;9071;48.220;14.480;2023-05-07T08:36:02;21.20;99.90
17891;DHT22;9071;48.220;14.480;2023-05-07T08:41:04;21.10;99.90
17891;DHT22;9071;48.220;14.480;2023-05-07T08:46:10;21.00;99.90
17891;DHT22;9071;48.220;14.480;2023-05-07T08:51:13;20.90;99.90
17891;DHT22;9071;48.220;14.480;2023-05-07T08:56:16;20.90;99.90
17891;DHT22;9071;48.220;14.480;2023-05-07T09:01:20;20.90;99.90
17891;DHT22;9071;48.220;14.480;2023-05-07T09:06:22;20.90;99.90
17891;DHT22;9071;48.220;14.480;2023-05-07T09:11:24;20.70;99.90
17891;DHT22;9071;48.220;14.480;2023-05-07T09:16:28;20.60;99.90
17891;DHT22;9071;48.220;14.480;2023-05-07T09:21:30;20.60;99.90
17891;DHT22;9071;48.220;14.480;2023-05-07T09:26:32;20.60;99.90
17891;DHT22;9071;48.220;14.480;2023-05-07T09:31:38;20.40;99.90
17891;DHT22;9071;48.220;14.480;2023-05-07T09:36:40;20.70;99.90
17891;DHT22;9071;48.220;14.480;2023-05-07T09:41:46;20.90;99.90
17891;DHT22;9071;48.220;14.480;2023-05-07T09:46:54;21.20;99.90
17891;DHT22;9071;48.220;14.480;2023-05-07T09:51:56;21.60;99.90
17891;DHT22;9071;48.220;14.480;2023-05-07T09:57:01;21.60;99.90
17891;DHT22;9071;48.220;14.480;2023-05-07T10:02:05;21.50;99.90
17891;DHT22;9071;48.220;14.480;2023-05-07T10:07:08;21.80;99.90
17891;DHT22;9071;48.220;14.480;2023-05-07T10:12:10;21.60;99.90
17891;DHT22;9071;48.220;14.480;2023-05-07T10:17:16;21.30;99.90
17891;DHT22;9071;48.220;14.480;2023-05-07T10:22:19;21.80;99.90
17891;DHT22;9071;48.220;14.480;2023-05-07T10:27:22;21.80;99.90
17891;DHT22;9071;48.220;14.480;2023-05-07T10:32:38;21.90;99.90
17891;DHT22;9071;48.220;14.480;2023-05-07T10:37:41;22.00;99.90
17891;DHT22;9071;48.220;14.480;2023-05-07T10:42:56;21.90;99.90
17891;DHT22;9071;48.220;14.480;2023-05-07T10:48:11;22.20;99.90
17891;DHT22;9071;48.220;14.480;2023-05-07T10:53:31;22.30;99.90
17891;DHT22;9071;48.220;14.480;2023-05-07T10:58:33;22.20;99.90
17891;DHT22;9071;48.220;14.480;2023-05-07T11:04:12;22.10;99.90
17891;DHT22;9071;48.220;14.480;2023-05-07T11:09:14;21.90;99.90
17891;DHT22;9071;48.220;14.480;2023-05-07T11:14:43;22.50;99.90
17891;DHT22;9071;48.220;14.480;2023-05-07T11:19:50;22.70;99.90
17891;DHT22;9071;48.220;14.480;2023-05-07T11:24:53;22.80;99.90
17891;DHT22;9071;48.220;14.480;2023-05-07T11:29:55;22.80;99.90
17891;DHT22;9071;48.220;14.480;2023-05-07T11:35:00;23.00;99.90
17891;DHT22;9071;48.220;14.480;2023-05-07T11:40:04;22.80;99.90
17891;DHT22;9071;48.220;14.480;2023-05-07T11:45:08;22.70;99.90
17891;DHT22;9071;48.220;14.480;2023-05-07T11:50:11;22.80;99.90
17891;DHT22;9071;48.220;14.480;2023-05-07T11:55:13;23.00;99.90
17891;DHT22;9071;48.220;14.480;2023-05-07T12:00:19;23.20;99.90
17891;DHT22;9071;48.220;14.480;2023-05-07T12:05:23;23.50;99.90
17891;DHT22;9071;48.220;14.480;2023-05-07T12:10:26;23.60;99.90
17891;DHT22;9071;48.220;14.480;2023-05-07T12:15:28;23.50;99.90
17891;DHT22;9071;48.220;14.480;2023-05-07T12:20:31;23.10;99.90
17891;DHT22;9071;48.220;14.480;2023-05-07T12:25:34;23.30;99.90
17891;DHT22;9071;48.220;14.480;2023-05-07T12:30:38;23.70;99.90
17891;DHT22;9071;48.220;14.480;2023-05-07T12:35:44;24.10;99.90
17891;DHT22;9071;48.220;14.480;2023-05-07T12:40:47;23.60;99.90
17891;DHT22;9071;48.220;14.480;2023-05-07T12:45:53;23.60;99.90
17891;DHT22;9071;48.220;14.480;2023-05-07T12:50:58;23.50;99.90
17891;DHT22;9071;48.220;14.480;2023-05-07T12:56:01;23.40;99.90
17891;DHT22;9071;48.220;14.480;2023-05-07T13:01:05;23.30;99.90
17891;DHT22;9071;48.220;14.480;2023-05-07T13:06:09;23.40;99.90
17891;DHT22;9071;48.220;14.480;2023-05-07T13:11:13;23.60;99.90
17891;DHT22;9071;48.220;14.480;2023-05-07T13:16:15;23.60;99.90
17891;DHT22;9071;48.220;14.480;2023-05-07T13:21:19;23.50;99.90
17891;DHT22;9071;48.220;14.480;2023-05-07T13:26:21;23.50;99.90
17891;DHT22;9071;48.220;14.480;2023-05-07T13:31:23;23.20;99.90
17891;DHT22;9071;48.220;14.480;2023-05-07T13:36:27;23.00;99.90
17891;DHT22;9071;48.220;14.480;2023-05-07T13:41:29;23.10;99.90
17891;DHT22;9071;48.220;14.480;2023-05-07T13:46:31;23.20;99.90
17891;DHT22;9071;48.220;14.480;2023-05-07T13:51:34;23.20;99.90
17891;DHT22;9071;48.220;14.480;2023-05-07T13:56:36;23.20;99.90
17891;DHT22;9071;48.220;14.480;2023-05-07T14:01:39;23.20;99.90
17891;DHT22;9071;48.220;14.480;2023-05-07T14:06:42;23.40;99.90
17891;DHT22;9071;48.220;14.480;2023-05-07T14:11:44;23.30;99.90
17891;DHT22;9071;48.220;14.480;2023-05-07T14:16:48;23.10;99.90
17891;DHT22;9071;48.220;14.480;2023-05-07T14:21:51;23.00;99.90
17891;DHT22;9071;48.220;14.480;2023-05-07T14:26:53;22.70;99.90
17891;DHT22;9071;48.220;14.480;2023-05-07T14:31:56;22.60;99.90
17891;DHT22;9071;48.220;14.480;2023-05-07T14:37:00;22.70;99.90
17891;DHT22;9071;48.220;14.480;2023-05-07T14:42:03;22.60;99.90
17891;DHT22;9071;48.220;14.480;2023-05-07T14:47:06;22.40;99.90
17891;DHT22;9071;48.220;14.480;2023-05-07T14:52:09;22.20;99.90
17891;DHT22;9071;48.220;14.480;2023-05-07T14:57:13;22.10;99.90
17891;DHT22;9071;48.220;14.480;2023-05-07T15:02:16;22.10;99.90
17891;DHT22;9071;48.220;14.480;2023-05-07T15:07:20;22.00;99.90
17891;DHT22;9071;48.220;14.480;2023-05-07T15:12:22;21.80;99.90
17891;DHT22;9071;48.220;14.480;2023-05-07T15:17:24;21.70;99.90
17891;DHT22;9071;48.220;14.480;2023-05-07T15:22:28;21.40;99.90
17891;DHT22;9071;48.220;14.480;2023-05-07T15:27:30;21.20;99.90
17891;DHT22;9071;48.220;14.480;2023-05-07T15:32:32;21.10;99.90
17891;DHT22;9071;48.220;14.480;2023-05-07T15:37:36;21.00;99.90
17891;DHT22;9071;48.220;14.480;2023-05-07T15:42:38;20.80;99.90
17891;DHT22;9071;48.220;14.480;2023-05-07T15:47:40;20.70;99.90
17891;DHT22;9071;48.220;14.480;2023-05-07T15:52:43;20.70;99.90
17891;DHT22;9071;48.220;14.480;2023-05-07T15:57:47;20.60;99.90
17891;DHT22;9071;48.220;14.480;2023-05-07T16:02:49;20.50;99.90
17891;DHT22;9071;48.220;14.480;2023-05-07T16:07:52;20.30;99.90
17891;DHT22;9071;48.220;14.480;2023-05-07T16:12:54;20.20;99.90
17891;DHT22;9071;48.220;14.480;2023-05-07T16:17:56;20.10;99.90
17891;DHT22;9071;48.220;14.480;2023-05-07T16:23:00;20.10;99.90
17891;DHT22;9071;48.220;14.480;2023-05-07T16:28:03;20.10;99.90
17891;DHT22;9071;48.220;14.480;2023-05-07T16:33:05;19.90;99.90
17891;DHT22;9071;48.220;14.480;2023-05-07T16:38:09;19.80;99.90
17891;DHT22;9071;48.220;14.480;2023-05-07T16:43:11;19.60;99.90
17891;DHT22;9071;48.220;14.480;2023-05-07T16:48:13;19.50;99.90
17891;DHT22;9071;48.220;14.480;2023-05-07T16:53:17;19.40;99.90
17891;DHT22;9071;48.220;14.480;2023-05-07T16:58:20;19.20;99.90
17891;DHT22;9071;48.220;14.480;2023-05-07T17:03:22;19.10;99.90
17891;DHT22;9071;48.220;14.480;2023-05-07T17:08:25;18.90;99.90
17891;DHT22;9071;48.220;14.480;2023-05-07T17:13:28;18.80;99.90
17891;DHT22;9071;48.220;14.480;2023-05-07T17:18:30;18.60;99.90
17891;DHT22;9071;48.220;14.480;2023-05-07T17:23:33;18.50;99.90
17891;DHT22;9071;48.220;14.480;2023-05-07T17:28:35;18.40;99.90
17891;DHT22;9071;48.220;14.480;2023-05-07T17:33:37;18.30;99.90
17891;DHT22;9071;48.220;14.480;2023-05-07T17:38:41;18.20;99.90
17891;DHT22;9071;48.220;14.480;2023-05-07T17:43:43;18.10;99.90
17891;DHT22;9071;48.220;14.480;2023-05-07T17:48:45;18.00;99.90
17891;DHT22;9071;48.220;14.480;2023-05-07T17:53:49;17.90;99.90
17891;DHT22;9071;48.220;14.480;2023-05-07T17:58:51;17.70;99.90
17891;DHT22;9071;48.220;14.480;2023-05-07T18:03:54;17.70;99.90
17891;DHT22;9071;48.220;14.480;2023-05-07T18:08:57;17.60;99.90
17891;DHT22;9071;48.220;14.480;2023-05-07T18:14:00;17.50;99.90
17891;DHT22;9071;48.220;14.480;2023-05-07T18:19:02;17.30;99.90
17891;DHT22;9071;48.220;14.480;2023-05-07T18:24:06;17.20;99.90
17891;DHT22;9071;48.220;14.480;2023-05-07T18:29:09;17.20;99.90
17891;DHT22;9071;48.220;14.480;2023-05-07T18:34:11;17.10;99.90
17891;DHT22;9071;48.220;14.480;2023-05-07T18:39:15;17.00;99.90
17891;DHT22;9071;48.220;14.480;2023-05-07T18:44:17;17.00;99.90
17891;DHT22;9071;48.220;14.480;2023-05-07T18:49:19;16.90;99.90
17891;DHT22;9071;48.220;14.480;2023-05-07T18:54:23;16.80;99.90
17891;DHT22;9071;48.220;14.480;2023-05-07T18:59:25;16.70;99.90
17891;DHT22;9071;48.220;14.480;2023-05-07T19:04:27;16.50;99.90
17891;DHT22;9071;48.220;14.480;2023-05-07T19:09:31;16.40;99.90
17891;DHT22;9071;48.220;14.480;2023-05-07T19:14:33;16.20;99.90
17891;DHT22;9071;48.220;14.480;2023-05-07T19:19:35;16.10;99.90
17891;DHT22;9071;48.220;14.480;2023-05-07T19:24:38;16.00;99.90
17891;DHT22;9071;48.220;14.480;2023-05-07T19:29:42;15.80;99.90
17891;DHT22;9071;48.220;14.480;2023-05-07T19:34:44;15.70;99.90
17891;DHT22;9071;48.220;14.480;2023-05-07T19:39:47;15.50;99.90
17891;DHT22;9071;48.220;14.480;2023-05-07T19:44:49;15.40;99.90
17891;DHT22;9071;48.220;14.480;2023-05-07T19:49:51;15.20;99.90
17891;DHT22;9071;48.220;14.480;2023-05-07T19:54:55;15.10;99.90
17891;DHT22;9071;48.220;14.480;2023-05-07T19:59:57;14.90;99.90
17891;DHT22;9071;48.220;14.480;2023-05-07T20:04:59;14.70;99.90
17891;DHT22;9071;48.220;14.480;2023-05-07T20:10:03;14.50;99.90
17891;DHT22;9071;48.220;14.480;2023-05-07T20:15:06;14.40;99.90
17891;DHT22;9071;48.220;14.480;2023-05-07T20:20:09;14.20;99.90
17891;DHT22;9071;48.220;14.480;2023-05-07T20:25:12;14.00;99.90
17891;DHT22;9071;48.220;14.480;2023-05-07T20:30:15;13.70;99.90
17891;DHT22;9071;48.220;14.480;2023-05-07T20:35:18;13.50;99.90
17891;DHT22;9071;48.220;14.480;2023-05-07T20:40:22;13.40;99.90
17891;DHT22;9071;48.220;14.480;2023-05-07T20:45:24;13.20;99.90
17891;DHT22;9071;48.220;14.480;2023-05-07T20:50:26;13.00;99.90
17891;DHT22;9071;48.220;14.480;2023-05-07T20:55:30;12.80;99.90
17891;DHT22;9071;48.220;14.480;2023-05-07T21:00:32;12.60;99.90
17891;DHT22;9071;48.220;14.480;2023-05-07T21:05:34;12.50;99.90
17891;DHT22;9071;48.220;14.480;2023-05-07T21:10:37;12.30;99.90
17891;DHT22;9071;48.220;14.480;2023-05-07T21:15:40;12.20;99.90
17891;DHT22;9071;48.220;14.480;2023-05-07T21:20:43;12.00;99.90
17891;DHT22;9071;48.220;14.480;2023-05-07T21:25:47;12.00;99.90
17891;DHT22;9071;48.220;14.480;2023-05-07T21:30:51;11.90;99.90
17891;DHT22;9071;48.220;14.480;2023-05-07T21:35:53;11.70;99.90
17891;DHT22;9071;48.220;14.480;2023-05-07T21:40:57;11.70;99.90
17891;DHT22;9071;48.220;14.480;2023-05-07T21:45:59;11.50;99.90
17891;DHT22;9071;48.220;14.480;2023-05-07T21:51:05;11.50;99.90
17891;DHT22;9071;48.220;14.480;2023-05-07T21:56:09;11.30;99.90
17891;DHT22;9071;48.220;14.480;2023-05-07T22:01:11;11.20;99.90
17891;DHT22;9071;48.220;14.480;2023-05-07T22:06:13;11.00;99.90
17891;DHT22;9071;48.220;14.480;2023-05-07T22:11:19;10.90;99.90
17891;DHT22;9071;48.220;14.480;2023-05-07T22:16:21;10.80;99.90
17891;DHT22;9071;48.220;14.480;2023-05-07T22:21:23;10.70;99.90
17891;DHT22;9071;48.220;14.480;2023-05-07T22:26:26;10.60;99.90
17891;DHT22;9071;48.220;14.480;2023-05-07T22:31:28;10.50;99.90
17891;DHT22;9071;48.220;14.480;2023-05-07T22:36:31;10.40;99.90
17891;DHT22;9071;48.220;14.480;2023-05-07T22:41:34;10.20;99.90
17891;DHT22;9071;48.220;14.480;2023-05-07T22:46:36;10.20;99.90
17891;DHT22;9071;48.220;14.480;2023-05-07T22:51:39;10.00;99.90
17891;DHT22;9071;48.220;14.480;2023-05-07T22:56:42;9.90;99.90
17891;DHT22;9071;48.220;14.480;2023-05-07T23:01:45;9.80;99.90
17891;DHT22;9071;48.220;14.480;2023-05-07T23:06:48;9.60;99.90
17891;DHT22;9071;48.220;14.480;2023-05-07T23:11:51;9.50;99.90
17891;DHT22;9071;48.220;14.480;2023-05-07T23:16:53;9.30;99.90
17891;DHT22;9071;48.220;14.480;2023-05-07T23:21:55;9.20;99.90
17891;DHT22;9071;48.220;14.480;2023-05-07T23:27:00;9.10;99.90
17891;DHT22;9071;48.220;14.480;2023-05-07T23:32:04;9.10;99.90
17891;DHT22;9071;48.220;14.480;2023-05-07T23:37:07;9.00;99.90
17891;DHT22;9071;48.220;14.480;2023-05-07T23:42:11;8.90;99.90
17891;DHT22;9071;48.220;14.480;2023-05-07T23:47:13;8.70;99.90
17891;DHT22;9071;48.220;14.480;2023-05-07T23:52:15;8.70;99.90
17891;DHT22;9071;48.220;14.480;2023-05-07T23:57:18;8.70;99.90
